Time;durP1;ratioP1;P1;durP2;ratioP2;P2;SDS_P1;SDS_P2;PMS_P1;PMS_P2;Temp;Humidity;BMP_temperature;BMP_pressure;BME280_temperature;BME280_humidity;BME280_pressure;Samples;Min_cycle;Max_cycle;Signal;HPM_P1;HPM_P2
2021/06/16 00:01:45;;;;;;;3.63;3.25;;;;;;;;;;6277208;28;20046;-83
2021/06/16 00:04:46;;;;;;;4.43;3.70;;;16.60;90.50;;;;;;6294190;28;20082;-82
2021/06/16 00:07:47;;;;;;;6.00;3.63;;;16.70;91.80;;;;;;6277231;28;20748;-83
2021/06/16 00:10:47;;;;;;;4.47;3.00;;;16.60;92.00;;;;;;6260416;28;20032;-82
2021/06/16 00:13:48;;;;;;;4.72;3.10;;;16.70;91.40;;;;;;6293419;28;20467;-84
2021/06/16 00:16:48;;;;;;;3.63;3.10;;;16.70;91.60;;;;;;6276398;28;20044;-84
2021/06/16 00:19:49;;;;;;;4.30;3.28;;;16.60;92.00;;;;;;6276514;28;20033;-83
2021/06/16 00:22:50;;;;;;;4.43;3.35;;;16.60;92.30;;;;;;6293542;28;20032;-83
2021/06/16 00:25:51;;;;;;;4.63;3.22;;;16.50;92.10;;;;;;6293338;28;20202;-84
2021/06/16 00:28:52;;;;;;;3.92;3.08;;;16.90;93.00;;;;;;6292948;28;20419;-84
2021/06/16 00:31:52;;;;;;;3.92;3.30;;;16.50;93.10;;;;;;6276582;28;20078;-83
2021/06/16 00:34:53;;;;;;;3.30;3.00;;;16.40;92.70;;;;;;6293005;28;20032;-84
2021/06/16 00:37:54;;;;;;;6.60;3.60;;;16.50;93.40;;;;;;6276462;28;20115;-85
2021/06/16 00:40:58;;;;;;;5.95;3.70;;;16.50;94.00;;;;;;6292926;28;20519;-83
2021/06/16 00:43:58;;;;;;;5.72;3.58;;;16.40;94.80;;;;;;6276171;28;20032;-84
2021/06/16 00:47:00;;;;;;;5.30;3.33;;;16.40;94.40;;;;;;6292721;28;20489;-82
2021/06/16 00:50:01;;;;;;;5.57;3.47;;;16.40;93.10;;;;;;6275890;28;20063;-82
2021/06/16 00:53:01;;;;;;;4.95;3.22;;;16.50;99.70;;;;;;6272205;28;20537;-83
2021/06/16 00:56:02;;;;;;;3.80;3.47;;;16.50;92.90;;;;;;6292051;28;20036;-82
2021/06/16 00:59:03;;;;;;;6.85;3.63;;;17.20;99.90;;;;;;6275658;28;20039;-81
2021/06/16 01:02:03;;;;;;;3.63;3.10;;;16.40;99.90;;;;;;6293736;28;20069;-82
2021/06/16 01:05:05;;;;;;;4.80;3.83;;;16.40;99.90;;;;;;6258987;28;20056;-81
2021/06/16 01:08:06;;;;;;;6.37;3.60;;;16.30;99.90;;;;;;6275588;28;20074;-80
2021/06/16 01:11:07;;;;;;;8.20;4.25;;;16.20;99.90;;;;;;6292277;28;20705;-83
2021/06/16 01:14:12;;;;;;;4.70;4.18;;;16.10;99.40;;;;;;6275298;28;20040;-83
2021/06/16 01:17:19;;;;;;;7.05;3.83;;;16.20;99.90;;;;;;6291492;28;20043;-83
2021/06/16 01:20:49;;;;;;;5.72;3.70;;;16.60;99.90;;;;;;6275144;28;20367;-82
2021/06/16 01:24:05;;;;;;;4.85;3.35;;;16.40;99.90;;;;;;6223316;28;20096;-84
2021/06/16 01:27:06;;;;;;;6.25;3.60;;;16.50;99.90;;;;;;6223893;28;21011;-84
2021/06/16 01:30:07;;;;;;;4.45;3.78;;;;;;;;;;6223567;28;20107;-81
2021/06/16 01:33:09;;;;;;;4.57;3.63;;;;;;;;;;6207104;28;20050;-84
2021/06/16 01:36:09;;;;;;;5.43;3.70;;;16.20;99.90;;;;;;6207337;28;20042;-82
2021/06/16 01:39:10;;;;;;;4.00;3.60;;;16.40;99.90;;;;;;6223572;28;20422;-83
2021/06/16 01:42:13;;;;;;;5.35;3.70;;;16.40;95.40;;;;;;6223008;28;20021;-81
2021/06/16 01:45:16;;;;;;;5.60;3.72;;;16.30;95.80;;;;;;6223719;28;20037;-82
2021/06/16 01:48:17;;;;;;;;;;;16.20;95.80;;;;;;6207344;28;20034;-84
2021/06/16 01:51:17;;;;;;;5.20;3.95;;;16.20;96.60;;;;;;6207261;28;20406;-81
2021/06/16 01:54:18;;;;;;;5.25;4.00;;;16.30;96.40;;;;;;6206892;28;20507;-82
2021/06/16 01:57:19;;;;;;;6.93;4.00;;;16.60;96.50;;;;;;6223608;28;20215;-81
2021/06/16 02:00:19;;;;;;;6.45;3.70;;;16.30;96.20;;;;;;6263015;28;20052;-81
2021/06/16 02:03:20;;;;;;;5.13;4.30;;;16.40;96.40;;;;;;6274775;28;20526;-84
2021/06/16 02:06:23;;;;;;;5.03;4.53;;;16.30;96.80;;;;;;6258689;28;20110;-82
2021/06/16 02:09:24;;;;;;;6.72;4.57;;;16.40;96.60;;;;;;6291583;28;20040;-84
2021/06/16 02:12:25;;;;;;;7.53;5.40;;;16.40;97.40;;;;;;6274638;28;20043;-82
2021/06/16 02:15:29;;;;;;;8.20;4.53;;;16.30;98.80;;;;;;6290791;28;20044;-83
2021/06/16 02:18:35;;;;;;;7.22;4.72;;;16.10;99.20;;;;;;6290956;28;20027;-81
2021/06/16 02:21:35;;;;;;;11.30;5.53;;;15.90;98.40;;;;;;6290935;28;20069;-82
2021/06/16 02:24:36;;;;;;;9.02;4.38;;;15.80;99.70;;;;;;6291090;28;20021;-82
2021/06/16 02:27:37;;;;;;;7.93;4.85;;;;;;;;;;6274340;28;20028;-84
2021/06/16 02:30:38;;;;;;;6.03;4.45;;;15.80;98.60;;;;;;6292278;28;20053;-81
2021/06/16 02:33:38;;;;;;;6.90;4.45;;;15.60;99.90;;;;;;6274107;28;20036;-82
2021/06/16 02:36:44;;;;;;;4.78;4.28;;;15.60;99.90;;;;;;6291016;28;20040;-84
2021/06/16 02:39:51;;;;;;;6.43;4.90;;;15.60;99.90;;;;;;6290825;28;20036;-82
2021/06/16 02:42:52;;;;;;;6.03;4.97;;;15.70;99.90;;;;;;6274258;28;20060;-81
2021/06/16 02:45:53;;;;;;;6.55;4.85;;;15.70;99.90;;;;;;6290742;28;20033;-83
2021/06/16 02:48:53;;;;;;;6.72;4.97;;;15.70;99.90;;;;;;6290917;28;20021;-81
2021/06/16 02:51:54;;;;;;;8.30;4.90;;;15.70;99.90;;;;;;6274234;28;20393;-83
2021/06/16 02:54:59;;;;;;;8.35;4.70;;;15.60;99.90;;;;;;6276674;28;20044;-82
2021/06/16 02:57:59;;;;;;;8.55;5.30;;;15.60;99.90;;;;;;6295222;28;20060;-82
2021/06/16 03:01:01;;;;;;;7.32;5.57;;;15.60;99.90;;;;;;6271337;28;20030;-83
2021/06/16 03:04:01;;;;;;;8.47;5.20;;;15.50;99.90;;;;;;6295307;28;20020;-82
2021/06/16 03:07:02;;;;;;;7.68;5.45;;;15.60;99.90;;;;;;6278088;28;20035;-84
2021/06/16 03:10:03;;;;;;;7.30;5.60;;;15.50;99.90;;;;;;6294811;28;20037;-83
2021/06/16 03:13:04;;;;;;;6.13;5.50;;;15.60;99.90;;;;;;6294751;28;20025;-82
2021/06/16 03:16:05;;;;;;;8.02;5.47;;;15.70;99.90;;;;;;6294987;28;20075;-83
2021/06/16 03:19:06;;;;;;;6.97;5.05;;;15.60;99.90;;;;;;6278614;28;20556;-83
2021/06/16 03:22:06;;;;;;;7.18;5.43;;;15.70;99.90;;;;;;6278447;28;20477;-83
2021/06/16 03:25:08;;;;;;;5.90;5.20;;;15.60;99.90;;;;;;6278053;28;20028;-82
2021/06/16 03:28:09;;;;;;;10.40;5.38;;;;;;;;;;6294755;28;20025;-83
2021/06/16 03:31:09;;;;;;;9.88;6.07;;;15.60;99.90;;;;;;6276686;28;20059;-82
2021/06/16 03:34:10;;;;;;;6.53;5.18;;;;;;;;;;6293308;28;20033;-81
2021/06/16 03:37:11;;;;;;;5.93;5.32;;;15.50;99.90;;;;;;6293649;28;20035;-82
2021/06/16 03:40:12;;;;;;;6.47;5.35;;;15.60;99.90;;;;;;6294466;28;20394;-81
2021/06/16 03:43:13;;;;;;;8.65;5.78;;;;;;;;;;6294934;28;20028;-81
2021/06/16 03:46:14;;;;;;;7.88;6.00;;;;;;;;;;6294137;28;20058;-81
2021/06/16 03:49:15;;;;;;;8.88;5.47;;;15.50;99.90;;;;;;6294106;28;20016;-81
2021/06/16 03:52:16;;;;;;;7.80;5.53;;;15.70;99.90;;;;;;6277282;28;20498;-82
2021/06/16 03:55:17;;;;;;;6.80;5.28;;;15.80;99.90;;;;;;6294061;28;20159;-81
2021/06/16 03:58:17;;;;;;;7.25;5.28;;;15.80;99.90;;;;;;6277532;28;20025;-82
2021/06/16 04:01:18;;;;;;;6.75;5.95;;;15.80;99.90;;;;;;6293818;28;20486;-81
2021/06/16 04:04:18;;;;;;;6.63;5.85;;;15.90;99.90;;;;;;6293673;28;20112;-81
2021/06/16 04:07:20;;;;;;;7.72;5.53;;;16.00;99.90;;;;;;6277106;28;20111;-80
2021/06/16 04:10:21;;;;;;;7.88;6.03;;;16.00;99.90;;;;;;6276901;28;20028;-82
2021/06/16 04:13:22;;;;;;;7.93;6.25;;;;;;;;;;6293994;28;20378;-83
2021/06/16 04:16:24;;;;;;;7.38;6.13;;;16.00;99.90;;;;;;6276825;28;20067;-84
2021/06/16 04:19:25;;;;;;;8.40;5.70;;;;;;;;;;6293468;28;20035;-81
2021/06/16 04:22:25;;;;;;;6.50;5.75;;;16.20;99.90;;;;;;6277075;28;20347;-83
2021/06/16 04:25:26;;;;;;;8.25;5.85;;;16.30;99.90;;;;;;6276599;28;20102;-81
2021/06/16 04:28:27;;;;;;;8.50;5.97;;;16.40;99.90;;;;;;6270316;28;20024;-82
2021/06/16 04:31:27;;;;;;;12.73;7.93;;;16.60;99.90;;;;;;6276959;28;20111;-85
2021/06/16 04:34:28;;;;;;;8.68;5.88;;;16.80;99.90;;;;;;6275855;28;20047;-83
2021/06/16 04:37:29;;;;;;;9.50;8.13;;;16.80;99.90;;;;;;6276158;28;20032;-85
2021/06/16 04:40:29;;;;;;;9.48;7.60;;;17.00;99.90;;;;;;6276301;28;20457;-79
2021/06/16 04:43:30;;;;;;;13.18;7.93;;;17.10;99.90;;;;;;6292923;28;20120;-80
2021/06/16 04:46:30;;;;;;;9.30;6.65;;;17.40;99.90;;;;;;6276445;28;20025;-80
2021/06/16 04:49:32;;;;;;;10.90;6.70;;;17.80;99.60;;;;;;6294349;28;20028;-79
2021/06/16 04:52:33;;;;;;;7.50;6.13;;;18.10;98.60;;;;;;6293383;28;20032;-81
2021/06/16 04:55:33;;;;;;;9.80;6.22;;;18.40;98.20;;;;;;6275604;28;20044;-80
2021/06/16 04:58:34;;;;;;;6.95;6.18;;;18.70;98.40;;;;;;6292897;28;20378;-81
2021/06/16 05:01:35;;;;;;;9.23;6.30;;;;;;;;;;6292327;28;20477;-80
2021/06/16 05:04:36;;;;;;;7.43;6.00;;;;;;;;;;6292725;28;20024;-78
2021/06/16 05:07:37;;;;;;;6.93;5.93;;;19.50;95.30;;;;;;6275576;28;20481;-79
2021/06/16 05:10:38;;;;;;;7.05;5.97;;;19.60;96.60;;;;;;6292489;28;20115;-82
2021/06/16 05:13:38;;;;;;;6.53;5.60;;;20.00;96.00;;;;;;6275705;28;20393;-81
2021/06/16 05:16:39;;;;;;;6.40;5.55;;;20.20;95.10;;;;;;6291228;28;20043;-79
2021/06/16 05:19:40;;;;;;;6.72;5.75;;;20.70;94.60;;;;;;6292636;28;20028;-85
2021/06/16 05:22:41;;;;;;;7.53;6.20;;;;;;;;;;6275861;28;20034;-86
2021/06/16 05:25:42;;;;;;;6.45;5.80;;;21.10;93.10;;;;;;6276053;28;20024;-82
2021/06/16 05:28:42;;;;;;;7.22;5.70;;;21.40;93.80;;;;;;6275094;28;20086;-81
2021/06/16 05:31:43;;;;;;;6.82;5.85;;;21.50;93.40;;;;;;6291834;28;20035;-82
2021/06/16 05:34:43;;;;;;;7.75;5.03;;;21.60;93.80;;;;;;6291886;28;20088;-81
2021/06/16 05:37:45;;;;;;;7.60;6.18;;;21.80;93.10;;;;;;6258595;28;20524;-81
2021/06/16 05:40:46;;;;;;;9.02;5.88;;;21.90;92.70;;;;;;6274866;28;20039;-85
2021/06/16 05:43:46;;;;;;;5.97;5.32;;;22.00;93.20;;;;;;6274825;28;20032;-82
2021/06/16 05:46:47;;;;;;;6.47;5.38;;;22.20;93.00;;;;;;6291641;28;20039;-80
2021/06/16 05:49:47;;;;;;;6.03;5.35;;;22.40;92.20;;;;;;6292991;28;20033;-81
2021/06/16 05:52:48;;;;;;;6.22;5.35;;;22.70;92.30;;;;;;6292753;28;20093;-80
2021/06/16 05:55:49;;;;;;;7.00;5.68;;;22.90;91.30;;;;;;6291784;28;20040;-81
2021/06/16 05:58:49;;;;;;;9.25;5.50;;;23.30;90.10;;;;;;6292052;28;20405;-80
2021/06/16 06:01:50;;;;;;;7.68;5.35;;;23.50;90.10;;;;;;6291651;28;20070;-81
2021/06/16 06:04:50;;;;;;;6.28;5.45;;;23.70;88.70;;;;;;6291856;28;20032;-82
2021/06/16 06:07:51;;;;;;;6.00;5.18;;;24.40;99.50;;;;;;6275733;28;20024;-88
2021/06/16 06:10:53;;;;;;;5.70;5.00;;;25.30;98.20;;;;;;6267708;28;20029;-88
2021/06/16 06:13:54;;;;;;;6.55;4.95;;;25.90;96.70;;;;;;6275593;28;20119;-88
2021/06/16 06:16:55;;;;;;;7.10;4.63;;;26.30;87.50;;;;;;6269003;28;20033;-89
2021/06/16 06:19:56;;;;;;;5.90;5.30;;;27.20;89.80;;;;;;6275056;28;20035;-87
2021/06/16 06:22:56;;;;;;;6.83;4.70;;;28.10;93.60;;;;;;6265410;28;20477;-87
2021/06/16 06:25:58;;;;;;;6.23;4.97;;;;;;;;;;6275369;28;20359;-87
2021/06/16 06:28:59;;;;;;;7.40;5.22;;;;;;;;;;6278151;28;20475;-87
2021/06/16 06:32:00;;;;;;;6.93;5.30;;;;;;;;;;6279832;28;20115;-88
2021/06/16 06:35:04;;;;;;;6.15;5.20;;;;;;;;;;6280239;28;20063;-88
2021/06/16 06:38:05;;;;;;;7.40;5.60;;;;;;;;;;6279682;28;20025;-88
2021/06/16 06:41:06;;;;;;;6.05;5.15;;;;;;;;;;6279892;28;20356;-89
2021/06/16 06:44:07;;;;;;;6.72;4.82;;;;;;;;;;6280067;28;20036;-88
2021/06/16 06:47:44;;;;;;;6.43;5.07;;;30.80;70.40;;;;;;6279288;28;20033;-89
2021/06/16 06:51:17;;;;;;;5.50;4.95;;;31.10;84.20;;;;;;6294426;28;20086;-89
2021/06/16 06:58:22;;;;;;;6.95;4.95;;;31.80;56.60;;;;;;6296041;28;20043;-89
2021/06/16 07:01:24;;;;;;;6.78;4.85;;;;;;;;;;6294999;28;20093;-88
2021/06/16 07:04:25;;;;;;;5.97;4.90;;;;;;;;;;6278771;28;20033;-90
2021/06/16 07:07:26;;;;;;;6.40;5.13;;;;;;;;;;6279412;28;20530;-88
2021/06/16 07:10:28;;;;;;;7.45;4.80;;;;;;;;;;6279288;28;20025;-87
2021/06/16 07:13:29;;;;;;;6.53;5.32;;;;;;;;;;6279239;28;20615;-89
2021/06/16 07:16:30;;;;;;;5.45;4.82;;;32.50;54.50;;;;;;6278625;28;20035;-87
2021/06/16 07:19:33;;;;;;;8.20;5.43;;;32.80;55.90;;;;;;6278171;28;20029;-91
2021/06/16 07:22:34;;;;;;;7.40;5.88;;;;;;;;;;6279016;28;20032;-88
2021/06/16 07:25:35;;;;;;;7.32;4.80;;;;;;;;;;6278503;28;20449;-87
2021/06/16 07:28:36;;;;;;;6.00;5.35;;;32.80;54.30;;;;;;6278421;28;20029;-86
2021/06/16 07:31:37;;;;;;;10.52;5.40;;;32.70;57.30;;;;;;6278279;28;20047;-87
2021/06/16 07:34:37;;;;;;;7.37;6.07;;;33.00;57.10;;;;;;6278521;28;20050;-88
2021/06/16 07:37:38;;;;;;;7.60;5.83;;;33.30;56.50;;;;;;6264888;28;20266;-87
2021/06/16 07:40:39;;;;;;;6.38;5.00;;;;;;;;;;6276482;28;20524;-86
2021/06/16 07:44:51;;;;;;;6.97;4.82;;;34.00;54.60;;;;;;6277394;28;20037;-89
2021/06/16 08:24:35;;;;;;;5.60;4.63;;;;;;;;;;6134975;26;20079;-87
2021/06/16 08:27:36;;;;;;;8.07;5.13;;;;;;;;;;6261279;28;20053;-87
2021/06/16 08:30:48;;;;;;;6.78;4.20;;;35.00;49.50;;;;;;6261009;28;20033;-87
2021/06/16 08:33:49;;;;;;;6.18;4.82;;;33.90;50.30;;;;;;6261647;28;20081;-88
2021/06/16 08:36:56;;;;;;;9.73;4.40;;;34.80;53.90;;;;;;6276532;28;20471;-88
2021/06/16 08:39:57;;;;;;;6.20;4.18;;;36.50;53.00;;;;;;6277379;28;20440;-87
2021/06/16 08:42:57;;;;;;;;;;;35.20;52.50;;;;;;6260463;28;20081;-86
2021/06/16 08:45:58;;;;;;;7.70;4.13;;;35.40;49.50;;;;;;6260262;28;19908;-85
2021/06/16 08:49:01;;;;;;;;;;;35.40;50.90;;;;;;6276761;28;20119;-86
2021/06/16 08:52:06;;;;;;;7.38;4.35;;;35.50;50.60;;;;;;6258981;28;19904;-86
2021/06/16 08:55:11;;;;;;;11.15;4.10;;;35.70;50.70;;;;;;6260309;28;20041;-86
2021/06/16 08:58:12;;;;;;;6.80;4.70;;;35.60;49.50;;;;;;6276883;28;20040;-84
2021/06/16 11:30:42;;;;;;;4.95;4.43;;;35.80;49.70;;;;;;7615487;23;20028;-87
2021/06/16 11:34:50;;;;;;;6.05;3.92;;;35.40;49.50;;;;;;6221991;28;20042;-90
2021/06/16 11:37:58;;;;;;;5.18;4.03;;;34.50;50.10;;;;;;6154556;28;20468;-89
2021/06/16 11:45:11;;;;;;;4.70;3.90;;;35.80;51.50;;;;;;6219035;28;20050;-89
2021/06/16 11:48:12;;;;;;;6.10;3.72;;;34.90;68.60;;;;;;6131996;29;20035;-88
2021/06/16 11:51:13;;;;;;;;;;;34.80;52.40;;;;;;6116469;29;20137;-88
2021/06/16 11:54:23;;;;;;;6.13;4.20;;;34.50;69.40;;;;;;6130329;29;20026;-85
2021/06/16 11:57:27;;;;;;;4.80;4.30;;;34.60;51.80;;;;;;6130825;29;20393;-86
2021/06/16 12:00:28;;;;;;;7.85;4.30;;;;;;;;;;6129903;29;20035;-87
2021/06/16 12:03:29;;;;;;;8.13;4.15;;;34.40;69.30;;;;;;6129766;29;20428;-85
2021/06/16 12:06:30;;;;;;;;;;;34.30;56.10;;;;;;6130098;29;20161;-85
2021/06/16 12:09:43;;;;;;;4.93;4.37;;;34.00;55.90;;;;;;6129968;29;19906;-85
2021/06/16 12:13:07;;;;;;;8.93;4.15;;;34.10;55.00;;;;;;6129435;29;20465;-85
2021/06/16 12:16:09;;;;;;;8.25;4.43;;;34.20;52.20;;;;;;6130327;29;20027;-85
2021/06/16 12:19:17;;;;;;;4.88;4.38;;;33.90;55.40;;;;;;6121578;29;20070;-87
2021/06/16 12:22:18;;;;;;;6.50;4.03;;;33.90;52.60;;;;;;6137090;28;20038;-86
2021/06/16 12:25:27;;;;;;;7.90;3.95;;;33.90;51.60;;;;;;6190872;28;20050;-86
2021/06/16 12:28:27;;;;;;;5.60;3.60;;;33.90;52.90;;;;;;6210308;28;20042;-86
2021/06/16 12:31:41;;;;;;;4.13;3.72;;;34.00;52.80;;;;;;6226439;28;20149;-86
2021/06/16 12:38:02;;;;;;;5.63;4.20;;;34.10;51.10;;;;;;6211507;28;20033;-76
2021/06/16 12:41:19;;;;;;;5.60;3.63;;;34.20;51.80;;;;;;6227020;28;20062;-77
2021/06/16 12:44:27;;;;;;;5.45;3.97;;;34.20;50.30;;;;;;6222837;28;20072;-82
2021/06/16 12:47:32;;;;;;;6.53;3.90;;;34.20;49.80;;;;;;6226605;28;20069;-76
2021/06/16 12:50:34;;;;;;;7.65;4.35;;;33.90;48.70;;;;;;6195483;28;20033;-76
2021/06/16 12:53:38;;;;;;;5.10;3.83;;;34.00;51.20;;;;;;6195903;28;20029;-76
2021/06/16 12:56:39;;;;;;;5.40;3.75;;;33.90;51.00;;;;;;6195129;28;20030;-76
2021/06/16 12:59:41;;;;;;;5.85;3.75;;;34.00;50.80;;;;;;6227130;28;20361;-76
2021/06/16 13:02:42;;;;;;;6.20;4.63;;;34.10;52.40;;;;;;6195630;28;20559;-76
2021/06/16 13:05:43;;;;;;;6.28;4.22;;;34.10;51.60;;;;;;6195276;28;20042;-76
2021/06/16 13:08:45;;;;;;;4.40;3.90;;;34.20;51.00;;;;;;6210626;28;20457;-76
2021/06/16 13:11:46;;;;;;;5.25;3.78;;;34.20;51.80;;;;;;6195538;28;20416;-76
2021/06/16 13:14:56;;;;;;;5.85;4.13;;;34.10;52.10;;;;;;6195545;28;20030;-80
2021/06/16 13:17:56;;;;;;;6.10;4.40;;;34.00;50.90;;;;;;6210413;28;20085;-76
2021/06/16 13:20:59;;;;;;;4.80;3.97;;;33.90;51.80;;;;;;6210195;28;20088;-76
2021/06/16 13:24:06;;;;;;;5.60;4.07;;;33.90;51.30;;;;;;6194789;28;20428;-75
2021/06/16 13:27:07;;;;;;;6.13;4.07;;;34.30;52.40;;;;;;6195130;28;20121;-75
2021/06/16 13:30:08;;;;;;;6.95;4.20;;;34.00;54.90;;;;;;6194753;28;20060;-76
2021/06/16 13:33:11;;;;;;;6.50;4.47;;;33.60;52.00;;;;;;6195077;28;20070;-75
2021/06/16 13:36:12;;;;;;;5.53;4.25;;;33.70;56.90;;;;;;6194544;28;20041;-76
2021/06/16 13:39:13;;;;;;;5.57;4.30;;;33.80;51.60;;;;;;6194378;28;20065;-76
2021/06/16 13:42:18;;;;;;;5.20;3.88;;;33.90;51.60;;;;;;6195019;28;20387;-75
2021/06/16 13:45:20;;;;;;;4.35;3.95;;;33.90;51.30;;;;;;6194690;28;20053;-76
2021/06/16 13:48:21;;;;;;;6.30;4.18;;;33.80;50.80;;;;;;6194582;28;20031;-76
2021/06/16 13:51:21;;;;;;;4.70;4.10;;;33.90;50.90;;;;;;6192969;28;20513;-75
2021/06/16 13:54:22;;;;;;;4.57;3.95;;;33.80;49.20;;;;;;6193118;28;20065;-76
2021/06/16 13:57:23;;;;;;;4.25;3.85;;;33.80;48.90;;;;;;6194538;28;20075;-75
2021/06/16 14:00:24;;;;;;;4.53;4.13;;;33.90;49.10;;;;;;6193044;28;20567;-76
2021/06/16 14:03:27;;;;;;;4.88;4.47;;;33.90;51.10;;;;;;6194121;28;20030;-76
2021/06/16 14:06:27;;;;;;;5.00;3.97;;;33.90;49.60;;;;;;6194418;28;20038;-77
2021/06/16 14:09:28;;;;;;;4.28;3.88;;;33.90;50.60;;;;;;6208998;28;20085;-77
2021/06/16 14:12:28;;;;;;;4.80;4.07;;;33.90;48.10;;;;;;6194458;28;20061;-74
2021/06/16 14:15:32;;;;;;;5.55;4.03;;;33.90;49.80;;;;;;6194818;28;20105;-77
2021/06/16 14:18:33;;;;;;;4.88;3.92;;;33.90;50.20;;;;;;6192749;28;20047;-79
2021/06/16 14:21:33;;;;;;;5.70;4.35;;;33.90;49.20;;;;;;6209724;28;20519;-78
2021/06/16 14:24:34;;;;;;;5.75;3.78;;;33.80;49.20;;;;;;6194330;28;20046;-79
2021/06/16 14:27:34;;;;;;;4.38;3.33;;;33.70;48.70;;;;;;6192946;28;20038;-78
2021/06/16 14:30:35;;;;;;;;;;;33.80;50.10;;;;;;6209073;28;20046;-79
2021/06/16 14:33:35;;;;;;;7.93;4.30;;;33.70;50.60;;;;;;6193154;28;19921;-78
2021/06/16 14:36:36;;;;;;;4.60;4.20;;;33.80;49.30;;;;;;6192473;28;20353;-77
2021/06/16 14:39:37;;;;;;;4.57;3.65;;;33.70;50.60;;;;;;6194207;28;20034;-78
2021/06/16 14:42:38;;;;;;;5.22;3.80;;;33.60;50.00;;;;;;6209205;28;20025;-79
2021/06/16 14:45:38;;;;;;;;;;;33.60;50.30;;;;;;6208970;28;20050;-79
2021/06/16 14:48:39;;;;;;;4.77;3.77;;;33.50;46.10;;;;;;6193628;28;19910;-78
2021/06/16 14:51:39;;;;;;;4.13;3.60;;;33.60;47.50;;;;;;6213515;28;20041;-79
2021/06/16 14:54:41;;;;;;;6.43;3.80;;;33.60;48.70;;;;;;6229780;28;20484;-80
2021/06/16 14:57:43;;;;;;;4.55;3.97;;;33.50;48.30;;;;;;6197203;28;20026;-77
2021/06/16 15:00:44;;;;;;;5.30;4.00;;;33.50;48.80;;;;;;6229563;28;20074;-79
2021/06/16 15:03:48;;;;;;;;;;;33.50;49.70;;;;;;6229806;28;20041;-78
2021/06/16 15:06:50;;;;;;;6.22;3.92;;;33.50;49.10;;;;;;6213085;28;19918;-79
2021/06/16 15:09:51;;;;;;;6.57;3.83;;;33.40;49.40;;;;;;6229100;28;20109;-79
2021/06/16 15:12:51;;;;;;;4.28;3.63;;;33.40;48.20;;;;;;6196820;28;20035;-79
2021/06/16 15:15:52;;;;;;;5.18;3.58;;;33.30;48.60;;;;;;6212737;28;20046;-78
2021/06/16 15:18:53;;;;;;;3.95;3.55;;;33.30;49.20;;;;;;6197559;28;20042;-78
2021/06/16 15:21:53;;;;;;;5.20;3.60;;;33.40;49.50;;;;;;6197896;28;20090;-78
2021/06/16 15:24:54;;;;;;;5.45;3.75;;;33.40;49.40;;;;;;6212724;28;20050;-78
2021/06/16 15:27:55;;;;;;;6.40;3.63;;;33.40;50.20;;;;;;6212957;28;20030;-78
2021/06/16 15:30:56;;;;;;;3.65;3.35;;;33.40;48.70;;;;;;6228791;28;20174;-78
2021/06/16 15:33:57;;;;;;;4.00;3.22;;;33.40;47.20;;;;;;6215858;28;20042;-78
2021/06/16 15:36:58;;;;;;;5.25;3.45;;;33.30;47.30;;;;;;6232399;28;20105;-78
2021/06/16 15:40:01;;;;;;;4.65;3.97;;;33.30;48.30;;;;;;6212684;28;20041;-77
2021/06/16 15:43:08;;;;;;;4.20;3.80;;;33.10;46.90;;;;;;6195938;28;20033;-78
2021/06/16 15:46:08;;;;;;;3.85;3.55;;;33.10;48.50;;;;;;6211907;28;20116;-78
2021/06/16 15:49:09;;;;;;;5.07;3.60;;;33.00;51.20;;;;;;6212282;28;20030;-77
2021/06/16 15:52:10;;;;;;;4.57;3.80;;;32.90;49.50;;;;;;6212382;28;20031;-77
2021/06/16 15:55:11;;;;;;;5.90;3.58;;;32.80;49.20;;;;;;6212265;28;20038;-76
2021/06/16 15:58:11;;;;;;;3.92;3.63;;;32.70;49.80;;;;;;6196886;28;20077;-76
2021/06/16 16:01:12;;;;;;;5.15;4.10;;;32.60;49.10;;;;;;6211662;28;20084;-81
2021/06/16 16:04:13;;;;;;;8.20;3.63;;;32.60;50.90;;;;;;6227993;28;20037;-86
2021/06/16 16:07:21;;;;;;;5.40;3.90;;;32.60;53.10;;;;;;6211974;28;20468;-88
2021/06/16 16:10:23;;;;;;;4.53;3.63;;;32.50;51.80;;;;;;6227842;28;20384;-89
2021/06/16 16:13:26;;;;;;;5.32;3.78;;;32.80;54.00;;;;;;6212809;28;20070;-87
2021/06/16 16:16:27;;;;;;;6.80;4.05;;;33.20;48.80;;;;;;6195446;28;20045;-85
2021/06/16 16:19:27;;;;;;;4.22;3.63;;;32.40;49.50;;;;;;6211814;28;20030;-84
2021/06/16 16:22:28;;;;;;;4.03;3.50;;;32.50;49.70;;;;;;6212045;28;20444;-84
2021/06/16 16:25:42;;;;;;;3.88;3.55;;;32.50;48.60;;;;;;6227914;28;20077;-86
2021/06/16 16:28:43;;;;;;;3.95;3.55;;;32.60;50.20;;;;;;6212229;28;20044;-88
2021/06/16 16:31:56;;;;;;;4.40;3.53;;;33.30;53.90;;;;;;6195103;28;20054;-92
2021/06/16 16:34:56;;;;;;;3.85;3.22;;;32.70;51.60;;;;;;6211548;28;20049;-85
2021/06/16 16:37:57;;;;;;;9.25;3.60;;;32.70;51.00;;;;;;6227299;28;20022;-87
2021/06/16 16:41:01;;;;;;;6.72;3.90;;;33.30;49.30;;;;;;6211631;28;20035;-88
2021/06/16 16:44:02;;;;;;;3.90;3.38;;;32.60;50.80;;;;;;6194913;28;20053;-83
2021/06/16 16:47:02;;;;;;;4.43;3.33;;;32.60;49.60;;;;;;6211121;28;20070;-84
2021/06/16 16:50:03;;;;;;;5.53;3.50;;;32.60;48.60;;;;;;6210901;28;20031;-84
2021/06/16 16:53:04;;;;;;;4.20;3.78;;;32.50;49.00;;;;;;6210852;28;20061;-85
2021/06/16 16:56:04;;;;;;;3.90;3.47;;;32.40;49.00;;;;;;6194204;28;20370;-83
2021/06/16 16:59:05;;;;;;;3.63;3.25;;;32.30;48.70;;;;;;6210660;28;20034;-84
2021/06/16 17:02:06;;;;;;;4.32;3.20;;;32.40;48.90;;;;;;6227845;28;20061;-83
2021/06/16 17:05:08;;;;;;;4.10;3.70;;;31.50;47.00;;;;;;6227139;28;20471;-84
2021/06/16 17:08:08;;;;;;;4.15;3.75;;;32.50;49.70;;;;;;6210545;28;20053;-82
2021/06/16 17:11:09;;;;;;;4.53;3.30;;;33.20;47.70;;;;;;6210406;28;20053;-87
2021/06/16 17:14:09;;;;;;;3.85;3.45;;;32.50;49.20;;;;;;6209698;28;20674;-83
2021/06/16 17:17:10;;;;;;;3.85;3.38;;;32.50;47.60;;;;;;6225440;28;20026;-85
2021/06/16 17:20:15;;;;;;;4.22;3.45;;;32.70;47.30;;;;;;6209878;28;20064;-82
2021/06/16 17:23:15;;;;;;;4.57;3.55;;;32.60;61.70;;;;;;6192890;28;20027;-83
2021/06/16 17:26:16;;;;;;;3.50;3.20;;;32.60;48.10;;;;;;6232542;28;20061;-83
2021/06/16 17:29:16;;;;;;;4.63;3.80;;;32.60;47.20;;;;;;6209852;28;20065;-84
2021/06/16 17:32:17;;;;;;;5.63;3.97;;;32.60;47.70;;;;;;6210486;28;20459;-83
2021/06/16 17:35:21;;;;;;;4.43;3.50;;;32.60;45.70;;;;;;6225349;28;20037;-85
2021/06/16 17:38:22;;;;;;;5.13;3.25;;;;;;;;;;6208818;28;20077;-84
2021/06/16 17:41:22;;;;;;;5.22;3.75;;;32.40;51.30;;;;;;6225850;28;20109;-84
2021/06/16 17:44:23;;;;;;;4.63;3.88;;;32.90;66.10;;;;;;6209230;28;20072;-86
2021/06/16 17:47:24;;;;;;;4.35;3.45;;;32.30;67.30;;;;;;6192849;28;20548;-84
2021/06/16 17:50:26;;;;;;;3.72;3.30;;;32.30;67.00;;;;;;6193346;28;20034;-84
2021/06/16 17:53:28;;;;;;;5.28;3.42;;;;;;;;;;6209601;28;20030;-85
2021/06/16 17:56:28;;;;;;;5.32;4.15;;;32.00;59.10;;;;;;6226005;28;20032;-85
2021/06/16 17:59:30;;;;;;;6.10;3.85;;;;;;;;;;6226042;28;20030;-86
2021/06/16 18:02:30;;;;;;;;;;;32.10;63.60;;;;;;6226563;28;20030;-85
2021/06/16 18:05:31;;;;;;;5.83;3.93;;;31.80;54.50;;;;;;6192709;28;20755;-86
2021/06/16 18:08:32;;;;;;;5.47;3.67;;;31.90;54.70;;;;;;6209688;28;20033;-86
2021/06/16 18:11:33;;;;;;;5.32;3.70;;;32.10;54.90;;;;;;6209012;28;20105;-82
2021/06/16 18:14:33;;;;;;;;;;;31.60;53.80;;;;;;6225758;28;20528;-82
2021/06/16 18:17:34;;;;;;;4.07;3.67;;;31.70;68.80;;;;;;6188298;28;19952;-82
2021/06/16 18:20:35;;;;;;;4.50;3.58;;;31.40;52.40;;;;;;6225077;28;20448;-84
2021/06/16 18:23:36;;;;;;;5.00;4.50;;;31.20;52.40;;;;;;6193509;28;20091;-80
2021/06/16 18:26:36;;;;;;;6.00;4.20;;;31.20;53.70;;;;;;6212347;28;20041;-81
2021/06/16 18:29:37;;;;;;;8.10;4.43;;;30.90;57.10;;;;;;6230126;28;20484;-81
2021/06/16 18:32:37;;;;;;;10.87;5.17;;;30.60;57.80;;;;;;6198365;28;20105;-82
2021/06/16 18:35:38;;;;;;;6.60;4.07;;;30.30;59.40;;;;;;6213287;28;20281;-81
2021/06/16 18:38:40;;;;;;;7.55;5.30;;;29.80;60.50;;;;;;6213286;28;20352;-80
2021/06/16 18:41:41;;;;;;;6.40;4.20;;;29.50;61.20;;;;;;6213348;28;20042;-78
2021/06/16 18:44:42;;;;;;;7.53;4.82;;;29.10;61.20;;;;;;6198324;28;20046;-78
2021/06/16 18:47:48;;;;;;;4.60;4.20;;;28.80;62.90;;;;;;6196666;28;20034;-78
2021/06/16 18:50:49;;;;;;;5.97;4.10;;;28.50;62.50;;;;;;6212647;28;20041;-78
2021/06/16 18:53:50;;;;;;;11.57;4.70;;;28.20;59.10;;;;;;6229898;28;20062;-78
2021/06/16 18:56:54;;;;;;;9.17;4.87;;;28.00;59.40;;;;;;6198433;28;20113;-78
2021/06/16 18:59:55;;;;;;;6.38;4.32;;;27.90;61.10;;;;;;6229705;28;20041;-78
2021/06/16 19:02:59;;;;;;;7.10;4.30;;;27.80;60.60;;;;;;6229593;28;20030;-79
2021/06/16 19:06:09;;;;;;;8.15;5.22;;;27.60;59.50;;;;;;6197756;28;20038;-87
2021/06/16 19:09:09;;;;;;;6.97;5.30;;;27.40;61.30;;;;;;6227582;28;20117;-79
2021/06/16 19:12:11;;;;;;;7.77;5.00;;;27.30;62.40;;;;;;6195669;28;20026;-80
2021/06/16 19:15:12;;;;;;;10.90;5.43;;;27.10;63.90;;;;;;6228846;28;20026;-80
2021/06/16 19:18:12;;;;;;;6.10;4.90;;;26.80;64.10;;;;;;6212949;28;20093;-79
2021/06/16 19:21:13;;;;;;;6.47;4.83;;;26.70;65.00;;;;;;6197879;28;20026;-80
2021/06/16 19:24:16;;;;;;;17.00;5.10;;;26.40;66.00;;;;;;6229325;28;21504;-80